createdAt,value
2024-01-10T00:01:04.203Z,14.07
2024-01-10T00:03:31.328Z,13.70
2024-01-10T00:05:58.378Z,14.43
2024-01-10T00:08:25.617Z,13.48
2024-01-10T00:10:55.466Z,13.32
2024-01-10T00:13:22.810Z,13.45
2024-01-10T00:15:50.493Z,14.50
2024-01-10T00:18:17.655Z,14.40
2024-01-10T00:20:44.813Z,15.02
2024-01-10T00:23:11.845Z,14.00
2024-01-10T00:25:38.934Z,13.65
2024-01-10T00:28:06.876Z,13.05
2024-01-10T00:30:34.047Z,13.48
2024-01-10T00:33:01.168Z,13.50
2024-01-10T00:35:28.372Z,12.88
2024-01-10T00:37:55.468Z,13.25
2024-01-10T00:40:22.535Z,13.23
2024-01-10T00:42:49.634Z,12.98
2024-01-10T00:45:17.467Z,13.05
2024-01-10T00:47:44.488Z,12.93
2024-01-10T00:50:11.739Z,13.73
2024-01-10T00:52:39.478Z,12.40
2024-01-10T00:55:07.501Z,13.00
2024-01-10T00:57:35.122Z,13.27
2024-01-10T01:00:06.353Z,13.38
2024-01-10T01:02:34.181Z,12.23
2024-01-10T01:05:02.564Z,12.32
2024-01-10T01:07:30.378Z,12.02
2024-01-10T01:09:57.908Z,13.00
2024-01-10T01:12:25.655Z,12.27
2024-01-10T01:14:53.285Z,11.80
2024-01-10T01:17:20.999Z,12.70
2024-01-10T01:19:48.615Z,12.60
2024-01-10T01:22:16.347Z,12.38
2024-01-10T01:24:43.476Z,12.10
2024-01-10T01:27:10.722Z,12.02
2024-01-10T01:29:37.664Z,12.70
2024-01-10T01:32:05.088Z,12.88
2024-01-10T01:34:32.548Z,12.47
2024-01-10T01:37:00.171Z,12.43
2024-01-10T01:39:28.109Z,11.93
2024-01-10T01:41:55.710Z,13.00
2024-01-10T01:44:23.368Z,13.50
2024-01-10T01:46:51.392Z,12.68
2024-01-10T01:49:19.267Z,11.77
2024-01-10T01:51:47.397Z,12.68
2024-01-10T01:54:15.193Z,13.03
2024-01-10T01:56:45.236Z,13.57
2024-01-10T01:59:13.534Z,12.77
2024-01-10T02:01:41.569Z,12.95
2024-01-10T02:04:08.743Z,12.67
2024-01-10T02:06:36.210Z,12.68
2024-01-10T02:09:03.332Z,14.07
2024-01-10T02:11:30.640Z,14.68
2024-01-10T02:13:59.293Z,13.90
2024-01-10T02:16:26.803Z,14.98
2024-01-10T02:18:53.931Z,15.20
2024-01-10T02:21:24.505Z,14.23
2024-01-10T02:23:51.446Z,15.77
2024-01-10T02:26:18.723Z,14.63
2024-01-10T02:28:45.681Z,15.98
2024-01-10T02:31:12.879Z,15.80
2024-01-10T02:33:40.740Z,15.60
2024-01-10T02:36:07.809Z,15.23
2024-01-10T02:38:34.697Z,15.68
2024-01-10T02:41:01.615Z,15.93
2024-01-10T02:43:29.520Z,15.17
2024-01-10T02:45:56.371Z,15.15
2024-01-10T02:48:23.368Z,15.38
2024-01-10T02:50:50.195Z,13.27
2024-01-10T02:53:17.184Z,13.83
2024-01-10T02:55:44.476Z,14.50
2024-01-10T02:58:11.481Z,14.25
2024-01-10T03:00:38.425Z,13.07
2024-01-10T03:03:05.489Z,13.57
2024-01-10T03:05:32.367Z,13.20
2024-01-10T03:07:59.337Z,13.55
2024-01-10T03:10:26.150Z,14.10
2024-01-10T03:12:52.977Z,15.07
2024-01-10T03:15:19.848Z,14.30
2024-01-10T03:17:46.759Z,13.32
2024-01-10T03:20:13.834Z,13.63
2024-01-10T03:22:40.713Z,13.37
2024-01-10T03:25:07.949Z,12.27
2024-01-10T03:27:34.750Z,13.02
2024-01-10T03:30:01.609Z,13.90
2024-01-10T03:32:28.532Z,13.90
2024-01-10T03:34:55.508Z,13.43
2024-01-10T03:37:22.345Z,13.52
2024-01-10T03:39:49.261Z,13.52
2024-01-10T03:42:16.070Z,13.30
2024-01-10T03:44:42.964Z,13.38
2024-01-10T03:47:09.950Z,14.55
2024-01-10T03:49:36.891Z,14.18
2024-01-10T03:52:04.055Z,14.10
2024-01-10T03:54:30.911Z,14.70
2024-01-10T03:56:57.779Z,15.07
2024-01-10T03:59:24.746Z,15.40
2024-01-10T04:01:51.748Z,14.30
2024-01-10T04:04:18.625Z,14.02
2024-01-10T04:06:45.443Z,14.88
2024-01-10T04:09:12.270Z,13.73
2024-01-10T04:11:39.140Z,14.23
2024-01-10T04:14:06.042Z,14.98
2024-01-10T04:16:32.935Z,14.57
2024-01-10T04:18:59.959Z,15.30
2024-01-10T04:21:26.901Z,14.80
2024-01-10T04:23:53.718Z,16.08
2024-01-10T04:26:21.824Z,15.13
2024-01-10T04:28:48.779Z,15.30
2024-01-10T04:31:15.853Z,16.58
2024-01-10T04:33:42.699Z,16.17
2024-01-10T04:36:09.574Z,15.15
2024-01-10T04:38:36.665Z,16.73
2024-01-10T04:41:03.678Z,15.98
2024-01-10T04:43:30.533Z,16.85
2024-01-10T04:45:57.345Z,17.73
2024-01-10T04:48:24.281Z,17.73
2024-01-10T04:50:51.132Z,17.15
2024-01-10T04:53:18.052Z,17.13
2024-01-10T04:55:45.800Z,16.45
2024-01-10T04:58:13.699Z,15.57
2024-01-10T05:00:40.511Z,15.95
2024-01-10T05:03:07.437Z,17.17
2024-01-10T05:05:34.447Z,16.02
2024-01-10T05:08:01.228Z,16.60
2024-01-10T05:10:28.699Z,14.75
2024-01-10T05:12:55.613Z,15.15
2024-01-10T05:15:22.481Z,14.95
2024-01-10T05:17:49.378Z,15.35
2024-01-10T05:20:16.370Z,15.05
2024-01-10T05:22:44.340Z,15.25
2024-01-10T05:25:11.200Z,16.07
2024-01-10T05:27:38.029Z,15.57
2024-01-10T05:30:05.232Z,15.35
2024-01-10T05:32:32.213Z,17.05
2024-01-10T05:34:59.350Z,15.27
2024-01-10T05:37:26.262Z,16.42
2024-01-10T05:39:53.051Z,15.93
2024-01-10T05:42:19.882Z,16.42
2024-01-10T05:44:46.694Z,17.03
2024-01-10T05:47:13.544Z,16.25
2024-01-10T05:49:40.533Z,17.33
2024-01-10T05:52:07.440Z,16.90
2024-01-10T05:54:34.217Z,16.87
2024-01-10T05:57:01.140Z,17.27
2024-01-10T05:59:29.861Z,16.48
2024-01-10T06:01:58.017Z,16.45
2024-01-10T06:04:25.075Z,16.63
2024-01-10T06:06:51.918Z,16.08
2024-01-10T06:09:18.732Z,17.05
2024-01-10T06:11:45.542Z,16.48
2024-01-10T06:14:12.363Z,17.02
2024-01-10T06:16:39.280Z,16.50
2024-01-10T06:19:07.171Z,17.27
2024-01-10T06:21:34.113Z,18.40
2024-01-10T06:24:01.014Z,17.80
2024-01-10T06:26:27.886Z,18.08
2024-01-10T06:28:54.761Z,17.77
2024-01-10T06:31:21.651Z,18.13
2024-01-10T06:33:49.002Z,18.30
2024-01-10T06:36:15.992Z,17.67
2024-01-10T06:38:43.054Z,18.42
2024-01-10T06:41:11.068Z,18.43
2024-01-10T06:43:38.505Z,18.00
2024-01-10T06:46:05.589Z,18.58
2024-01-10T06:48:32.445Z,18.60
2024-01-10T06:51:00.475Z,18.23
2024-01-10T06:53:27.360Z,18.10
2024-01-10T06:55:54.223Z,19.08
2024-01-10T06:58:21.109Z,19.17
2024-01-10T07:00:47.984Z,18.73
2024-01-10T07:03:14.877Z,19.10
2024-01-10T07:05:41.821Z,19.38
2024-01-10T07:08:08.808Z,19.77
2024-01-10T07:10:35.651Z,19.90
2024-01-10T07:13:02.485Z,20.10
2024-01-10T07:15:29.594Z,20.15
2024-01-10T07:17:56.509Z,19.52
2024-01-10T07:20:23.473Z,19.70
2024-01-10T07:22:50.545Z,19.80
2024-01-10T07:25:17.350Z,19.37
2024-01-10T07:27:45.260Z,19.10
2024-01-10T07:30:12.479Z,19.67
2024-01-10T07:32:39.422Z,18.80
2024-01-10T07:35:06.764Z,18.88
2024-01-10T07:37:33.552Z,19.70
2024-01-10T07:40:00.378Z,19.60
2024-01-10T07:42:27.204Z,19.88
2024-01-10T07:44:54.947Z,19.13
2024-01-10T07:47:21.971Z,20.05
2024-01-10T07:49:48.892Z,20.17
2024-01-10T07:52:15.749Z,19.92
2024-01-10T07:54:42.648Z,20.13
2024-01-10T07:57:09.478Z,19.83
2024-01-10T07:59:36.334Z,21.00
2024-01-10T08:02:03.302Z,19.92
2024-01-10T08:04:30.156Z,20.07
2024-01-10T08:06:57.076Z,20.85
2024-01-10T08:09:24.074Z,20.33
2024-01-10T08:11:51.707Z,21.25
2024-01-10T08:14:18.595Z,20.27
2024-01-10T08:16:47.672Z,20.35
2024-01-10T08:19:15.994Z,22.08
2024-01-10T08:21:43.003Z,21.20
2024-01-10T08:24:09.769Z,21.20
2024-01-10T08:26:36.703Z,21.92
2024-01-10T08:29:03.618Z,21.98
2024-01-10T08:31:30.697Z,21.27
2024-01-10T08:33:57.542Z,21.95
2024-01-10T08:36:24.438Z,22.10
2024-01-10T08:38:51.931Z,20.30
2024-01-10T08:41:18.778Z,21.63
2024-01-10T08:43:45.579Z,21.00
2024-01-10T08:46:12.753Z,21.20
2024-01-10T08:48:39.989Z,21.58
2024-01-10T08:51:06.886Z,21.02
2024-01-10T08:53:33.735Z,20.95
2024-01-10T08:56:00.622Z,20.25
2024-01-10T08:58:29.124Z,20.90
2024-01-10T09:00:56.001Z,22.00
2024-01-10T09:03:22.917Z,20.10
2024-01-10T09:05:57.313Z,20.50
2024-01-10T09:08:32.156Z,19.17
2024-01-10T09:10:59.031Z,20.07
2024-01-10T09:13:25.891Z,19.05
2024-01-10T09:15:52.785Z,19.83
2024-01-10T09:18:19.757Z,19.25
2024-01-10T09:20:47.265Z,18.90
2024-01-10T09:23:15.465Z,17.80
2024-01-10T09:25:44.329Z,18.63
2024-01-10T09:28:11.213Z,18.10
2024-01-10T09:30:41.329Z,16.70
2024-01-10T09:33:09.507Z,15.80
2024-01-10T09:35:36.506Z,16.77
2024-01-10T09:38:03.835Z,16.45
2024-01-10T09:40:30.863Z,16.92
2024-01-10T09:42:57.998Z,15.90
2024-01-10T09:45:27.298Z,16.63
2024-01-10T09:47:57.811Z,17.23
2024-01-10T09:50:25.437Z,15.07
2024-01-10T09:52:54.013Z,17.30
2024-01-10T09:55:25.243Z,16.88
2024-01-10T09:57:52.867Z,16.63
2024-01-10T10:00:19.915Z,16.57
2024-01-10T10:02:47.672Z,15.75
2024-01-10T10:05:16.616Z,16.80
2024-01-10T10:07:51.833Z,16.23
2024-01-10T10:10:19.442Z,16.50
2024-01-10T10:12:48.431Z,15.50
2024-01-10T10:15:17.135Z,14.95
2024-01-10T10:17:48.929Z,15.68
2024-01-10T10:20:31.242Z,15.45
2024-01-10T10:23:09.118Z,15.25
2024-01-10T10:25:46.795Z,15.30
2024-01-10T10:28:24.796Z,14.80
2024-01-10T10:30:56.683Z,14.73
2024-01-10T10:33:23.863Z,15.07
2024-01-10T10:35:52.745Z,14.68
2024-01-10T10:38:23.612Z,14.93
2024-01-10T10:40:52.011Z,14.25
2024-01-10T10:43:22.387Z,14.20
2024-01-10T10:45:50.600Z,14.95
2024-01-10T10:48:19.100Z,15.50
2024-01-10T10:51:00.794Z,14.93
2024-01-10T10:53:30.463Z,14.60
2024-01-10T10:55:58.349Z,15.40
2024-01-10T10:58:25.727Z,15.02
2024-01-10T11:00:53.471Z,14.15
2024-01-10T11:03:21.916Z,15.00
2024-01-10T11:05:50.295Z,14.43
2024-01-10T11:08:21.315Z,14.77
2024-01-10T11:10:51.523Z,14.73
2024-01-10T11:13:29.265Z,14.85
2024-01-10T11:16:50.462Z,15.13
2024-01-10T11:19:54.035Z,14.93
2024-01-10T11:22:42.940Z,16.15
2024-01-10T11:25:10.662Z,15.07
2024-01-10T11:27:38.362Z,14.32
2024-01-10T11:30:06.590Z,13.17
2024-01-10T11:32:33.589Z,14.82
2024-01-10T11:35:02.550Z,14.52
2024-01-10T11:37:46.067Z,12.60
2024-01-10T11:40:13.744Z,12.75
2024-01-10T11:42:44.812Z,12.80
2024-01-10T11:45:37.416Z,10.60
2024-01-10T11:48:04.506Z,9.50
2024-01-10T11:50:31.619Z,10.00
2024-01-10T11:52:58.623Z,10.85
2024-01-10T11:55:53.666Z,10.50
2024-01-10T11:58:20.626Z,9.70
2024-01-10T12:00:48.702Z,9.40
2024-01-10T12:03:16.124Z,8.68
2024-01-10T12:05:44.273Z,9.07
2024-01-10T12:08:11.417Z,9.33
2024-01-10T12:10:46.781Z,9.52
2024-01-10T12:13:13.708Z,8.98
2024-01-10T12:15:40.974Z,9.35
2024-01-10T12:18:07.839Z,9.40
2024-01-10T12:20:34.629Z,9.47
2024-01-10T12:23:01.542Z,9.77
2024-01-10T12:25:28.266Z,9.65
2024-01-10T12:27:55.099Z,9.57
2024-01-10T12:30:22.122Z,9.23
2024-01-10T12:32:52.351Z,9.63
2024-01-10T12:35:19.419Z,9.65
2024-01-10T12:37:55.682Z,10.50
2024-01-10T12:40:22.932Z,10.35
2024-01-10T12:42:49.780Z,10.00
2024-01-10T12:45:23.725Z,10.20
2024-01-10T12:47:50.852Z,10.80
2024-01-10T12:50:17.759Z,10.40
2024-01-10T12:52:44.699Z,10.48
2024-01-10T12:55:11.517Z,9.65
2024-01-10T12:57:38.321Z,9.50
2024-01-10T13:00:05.676Z,9.32
2024-01-10T13:02:32.556Z,9.55
2024-01-10T13:04:59.509Z,9.48
2024-01-10T13:07:26.287Z,9.65
2024-01-10T13:09:53.267Z,9.27
2024-01-10T13:12:20.220Z,9.95
2024-01-10T13:14:47.121Z,9.10
2024-01-10T13:17:14.625Z,9.30
2024-01-10T13:19:41.535Z,10.90
2024-01-10T13:22:09.225Z,11.07
2024-01-10T13:24:36.427Z,11.45
2024-01-10T13:27:04.225Z,12.07
2024-01-10T13:29:31.046Z,11.57
2024-01-10T13:31:58.024Z,11.02
2024-01-10T13:34:24.947Z,10.80
2024-01-10T13:36:51.761Z,10.50
2024-01-10T13:39:18.555Z,10.88
2024-01-10T13:41:45.881Z,10.63
2024-01-10T13:44:12.829Z,10.40
2024-01-10T13:46:39.786Z,10.27
2024-01-10T13:49:07.008Z,10.35
2024-01-10T13:51:33.976Z,10.70
2024-01-10T13:54:00.925Z,10.15
2024-01-10T13:56:28.209Z,10.85
2024-01-10T13:58:55.063Z,10.37
2024-01-10T14:01:21.882Z,10.02
2024-01-10T14:03:49.223Z,10.20
2024-01-10T14:06:16.168Z,9.70
2024-01-10T14:08:43.142Z,10.23
2024-01-10T14:11:10.005Z,9.70
2024-01-10T14:13:36.829Z,9.48
2024-01-10T14:16:03.649Z,9.55
2024-01-10T14:18:30.587Z,9.98
2024-01-10T14:20:57.457Z,9.63
2024-01-10T14:23:24.566Z,9.37
2024-01-10T14:25:51.666Z,9.52
2024-01-10T14:28:18.608Z,9.10
2024-01-10T14:30:45.713Z,8.68
2024-01-10T14:33:12.915Z,9.27
2024-01-10T14:35:40.143Z,8.53
2024-01-10T14:38:07.491Z,9.50
2024-01-10T14:40:34.694Z,8.73
2024-01-10T14:43:01.714Z,9.38
2024-01-10T14:45:28.572Z,8.35
2024-01-10T14:47:55.759Z,9.07
2024-01-10T14:50:23.603Z,8.98
2024-01-10T14:52:50.728Z,9.30
2024-01-10T14:55:17.722Z,8.93
2024-01-10T14:57:44.644Z,8.65
2024-01-10T15:00:12.020Z,9.07
2024-01-10T15:02:39.959Z,8.68
2024-01-10T15:05:07.646Z,7.95
2024-01-10T15:07:35.107Z,8.82
2024-01-10T15:10:02.171Z,8.60
2024-01-10T15:12:29.074Z,8.50
2024-01-10T15:14:56.078Z,8.45
2024-01-10T15:17:23.171Z,8.43
2024-01-10T15:19:50.243Z,8.30
2024-01-10T15:22:17.187Z,8.27
2024-01-10T15:24:44.164Z,8.70
2024-01-10T15:27:12.082Z,8.40
2024-01-10T15:29:39.822Z,8.57
2024-01-10T15:32:07.551Z,8.10
2024-01-10T15:34:34.943Z,8.77
2024-01-10T15:37:01.918Z,9.00
2024-01-10T15:39:28.938Z,8.57
2024-01-10T15:41:56.049Z,8.07
2024-01-10T15:44:23.290Z,8.88
2024-01-10T15:46:50.878Z,8.68
2024-01-10T15:49:18.395Z,8.97
2024-01-10T15:51:45.494Z,8.88
2024-01-10T15:54:12.504Z,8.40
2024-01-10T15:56:39.475Z,9.10
2024-01-10T15:59:06.446Z,8.82
2024-01-10T16:01:34.239Z,8.60
2024-01-10T16:04:01.637Z,8.43
2024-01-10T16:06:28.871Z,9.65
2024-01-10T16:08:55.772Z,8.77
2024-01-10T16:11:22.896Z,8.88
2024-01-10T16:13:49.968Z,8.90
2024-01-10T16:16:16.858Z,8.90
2024-01-10T16:18:43.854Z,9.38
2024-01-10T16:21:11.601Z,9.20
2024-01-10T16:23:38.564Z,8.85
2024-01-10T16:26:05.578Z,9.47
2024-01-10T16:28:32.570Z,9.07
2024-01-10T16:30:59.468Z,9.00
2024-01-10T16:33:26.457Z,9.80
2024-01-10T16:35:53.693Z,10.73
2024-01-10T16:38:20.712Z,10.63
2024-01-10T16:40:47.758Z,10.02
2024-01-10T16:43:14.781Z,10.30
2024-01-10T16:45:41.827Z,9.77
2024-01-10T16:48:09.122Z,10.75
2024-01-10T16:50:36.901Z,9.90
2024-01-10T16:53:04.139Z,9.57
2024-01-10T16:55:31.094Z,9.82
2024-01-10T16:57:58.083Z,10.02
2024-01-10T17:00:25.105Z,10.32
2024-01-10T17:02:52.210Z,9.80
2024-01-10T17:05:19.303Z,9.68
2024-01-10T17:07:46.473Z,9.65
2024-01-10T17:10:13.533Z,9.40
2024-01-10T17:12:40.504Z,9.10
2024-01-10T17:15:07.960Z,9.57
2024-01-10T17:17:36.044Z,9.75
2024-01-10T17:20:04.029Z,9.68
2024-01-10T17:22:34.503Z,9.35
2024-01-10T17:25:02.318Z,9.02
2024-01-10T17:27:29.417Z,9.00
2024-01-10T17:29:56.780Z,9.20
2024-01-10T17:32:23.970Z,8.75
2024-01-10T17:34:50.978Z,9.15
2024-01-10T17:37:18.055Z,9.85
2024-01-10T17:39:45.809Z,9.43
2024-01-10T17:42:12.802Z,9.15
2024-01-10T17:44:39.778Z,8.73
2024-01-10T17:47:07.356Z,8.38
2024-01-10T17:49:34.440Z,8.82
2024-01-10T17:52:01.568Z,8.27
2024-01-10T17:54:28.587Z,8.90
2024-01-10T17:56:55.699Z,8.45
2024-01-10T17:59:22.653Z,8.13
2024-01-10T18:01:50.665Z,8.73
2024-01-10T18:04:17.649Z,8.37
2024-01-10T18:06:44.625Z,8.52
2024-01-10T18:09:11.659Z,7.88
2024-01-10T18:11:38.527Z,7.75
2024-01-10T18:14:05.579Z,8.20
2024-01-10T18:16:32.797Z,8.60
2024-01-10T18:18:59.933Z,7.60
2024-01-10T18:21:27.255Z,7.47
2024-01-10T18:23:54.317Z,7.82
2024-01-10T18:26:21.274Z,8.30
2024-01-10T18:28:48.815Z,7.77
2024-01-10T18:31:15.861Z,8.13
2024-01-10T18:33:43.118Z,8.48
2024-01-10T18:36:10.264Z,8.80
2024-01-10T18:38:37.335Z,7.78
2024-01-10T18:41:04.438Z,8.13
2024-01-10T18:43:31.553Z,8.20
2024-01-10T18:45:58.431Z,8.40
2024-01-10T18:48:25.430Z,8.20
2024-01-10T18:50:52.594Z,8.75
2024-01-10T18:53:19.579Z,8.37
2024-01-10T18:55:46.939Z,8.82
2024-01-10T18:58:14.746Z,8.70
2024-01-10T19:00:41.955Z,9.18
2024-01-10T19:03:08.888Z,8.80
2024-01-10T19:05:36.317Z,9.20
2024-01-10T19:08:03.570Z,8.60
2024-01-10T19:10:31.445Z,9.35
2024-01-10T19:12:58.441Z,9.27
2024-01-10T19:15:25.472Z,10.30
2024-01-10T19:17:53.012Z,9.70
2024-01-10T19:20:20.461Z,10.70
2024-01-10T19:22:47.478Z,9.45
2024-01-10T19:25:15.029Z,10.15
2024-01-10T19:27:42.042Z,9.85
2024-01-10T19:30:09.582Z,10.13
2024-01-10T19:32:37.110Z,10.48
2024-01-10T19:35:05.026Z,10.23
2024-01-10T19:37:32.054Z,13.43
2024-01-10T19:39:59.169Z,11.23
2024-01-10T19:42:28.310Z,10.10
2024-01-10T19:44:56.626Z,10.57
2024-01-10T19:47:23.882Z,10.50
2024-01-10T19:49:51.114Z,9.93
2024-01-10T19:52:18.957Z,12.20
2024-01-10T19:54:46.111Z,10.10
2024-01-10T19:57:13.240Z,10.55
2024-01-10T19:59:40.352Z,10.68
2024-01-10T20:02:08.119Z,10.00
2024-01-10T20:04:35.090Z,10.20
2024-01-10T20:07:03.005Z,10.10
2024-01-10T20:09:30.287Z,9.52
2024-01-10T20:11:57.422Z,10.13
2024-01-10T20:14:24.946Z,10.48
2024-01-10T20:16:52.065Z,10.18
2024-01-10T20:19:19.432Z,9.70
2024-01-10T20:21:46.445Z,9.13
2024-01-10T20:24:13.789Z,9.15
2024-01-10T20:26:41.194Z,9.07
2024-01-10T20:29:08.316Z,9.77
2024-01-10T20:31:35.450Z,9.27
2024-01-10T20:34:02.776Z,9.05
2024-01-10T20:36:30.564Z,8.93
2024-01-10T20:38:59.780Z,8.45
2024-01-10T20:41:26.849Z,9.35
2024-01-10T20:43:54.180Z,10.73
2024-01-10T20:46:21.238Z,10.70
2024-01-10T20:48:48.243Z,12.07
2024-01-10T20:51:15.218Z,10.50
2024-01-10T20:53:43.013Z,10.80
2024-01-10T20:56:10.045Z,10.47
2024-01-10T20:58:37.057Z,10.00
2024-01-10T21:01:05.541Z,10.13
2024-01-10T21:03:33.808Z,8.85
2024-01-10T21:06:01.005Z,9.15
2024-01-10T21:08:28.143Z,9.20
2024-01-10T21:10:55.218Z,9.68
2024-01-10T21:13:22.230Z,9.00
2024-01-10T21:15:49.213Z,8.90
2024-01-10T21:18:16.290Z,8.60
2024-01-10T21:20:43.459Z,8.50
2024-01-10T21:23:10.498Z,9.00
2024-01-10T21:25:37.558Z,8.75
2024-01-10T21:28:08.983Z,9.45
2024-01-10T21:30:36.820Z,8.95
2024-01-10T21:33:04.405Z,8.13
2024-01-10T21:35:31.871Z,8.70
2024-01-10T21:37:58.914Z,8.70
2024-01-10T21:40:26.034Z,8.95
2024-01-10T21:42:53.249Z,9.43
2024-01-10T21:45:20.160Z,9.23
2024-01-10T21:47:47.330Z,8.73
2024-01-10T21:50:14.580Z,8.13
2024-01-10T21:52:41.617Z,8.70
2024-01-10T21:55:09.444Z,7.88
2024-01-10T21:57:36.465Z,8.50
2024-01-10T22:00:04.373Z,8.80
2024-01-10T22:02:34.285Z,9.18
2024-01-10T22:05:01.586Z,8.32
2024-01-10T22:07:28.803Z,8.68
2024-01-10T22:09:55.857Z,8.67
2024-01-10T22:12:22.805Z,8.70
2024-01-10T22:14:49.811Z,8.95
2024-01-10T22:17:16.748Z,9.65
2024-01-10T22:19:43.808Z,9.85
2024-01-10T22:22:10.809Z,10.00
2024-01-10T22:24:37.889Z,10.90
2024-01-10T22:27:05.565Z,10.57
2024-01-10T22:29:32.897Z,11.18
2024-01-10T22:32:00.024Z,10.90
2024-01-10T22:34:28.970Z,10.03
2024-01-10T22:36:56.085Z,10.57
2024-01-10T22:39:23.153Z,9.75
2024-01-10T22:41:51.353Z,10.13
2024-01-10T22:44:18.504Z,9.75
2024-01-10T22:46:45.717Z,10.47
2024-01-10T22:49:12.993Z,9.52
2024-01-10T22:51:40.081Z,11.13
2024-01-10T22:54:07.348Z,11.02
2024-01-10T22:56:34.506Z,11.85
2024-01-10T22:59:01.514Z,12.97
2024-01-10T23:01:28.588Z,12.00
2024-01-10T23:03:55.731Z,11.15
2024-01-10T23:06:22.717Z,11.07
2024-01-10T23:08:49.967Z,11.40
2024-01-10T23:11:17.037Z,10.90
2024-01-10T23:13:44.059Z,11.60
2024-01-10T23:16:10.922Z,11.85
2024-01-10T23:18:38.191Z,11.65
2024-01-10T23:21:06.592Z,11.85
2024-01-10T23:23:34.675Z,11.10
2024-01-10T23:26:07.539Z,11.52
2024-01-10T23:28:35.920Z,11.98
2024-01-10T23:31:02.953Z,11.93
2024-01-10T23:33:30.099Z,11.98
2024-01-10T23:35:57.297Z,12.37
2024-01-10T23:38:24.328Z,12.95
2024-01-10T23:40:51.450Z,12.77
2024-01-10T23:43:26.135Z,12.57
2024-01-10T23:45:55.591Z,14.10
2024-01-10T23:48:23.738Z,13.70
2024-01-10T23:50:51.032Z,14.40
2024-01-10T23:53:18.160Z,13.65
2024-01-10T23:55:45.260Z,13.30
2024-01-10T23:58:12.434Z,13.63
